Sterling, Wisconsin
Current Conditions -  °F | °C
As of 5:55 PM on Sunday 23 Nov 2014 (Local Time) from KROS Reporting Station
Overcast Overcast  
Wind Chill: 36°   Ceiling: 3700
Heat Index: 36°   Visibility: 7mi
Dew Point: 35°   Wind: 0mph
Humidity: 96%   Direction: NA
Pressure: 29.39"   Gusts: NA
Location:  45.5664°N, 92.6511°W
Report Text: KROS 232355Z AUTO 00000KT 7SM BKN037 OVC048 02/02 A2939 RMK AO2 T00230017 10055 20022
Loading
Personal Weather Stations






























Interactive Weather Map New forecast layout! Learn more

10-Day Weather Forecast

Advertisements
Track Severe Weather on mobile